sensor_id;sensor_type;location;lat;lon;timestamp;pressure;altitude;pressure_sealevel;temperature;humidity
31346;BME280;21711;49.708;18.568;2023-04-10T00:01:22;98154.50;;;7.77;100.00
31346;BME280;21711;49.708;18.568;2023-04-10T00:03:50;98154.81;;;7.81;100.00
31346;BME280;21711;49.708;18.568;2023-04-10T00:06:18;98140.72;;;7.87;100.00
31346;BME280;21711;49.708;18.568;2023-04-10T00:08:45;98151.97;;;7.82;100.00
31346;BME280;21711;49.708;18.568;2023-04-10T00:11:12;98145.94;;;7.99;100.00
31346;BME280;21711;49.708;18.568;2023-04-10T00:13:40;98146.91;;;8.22;100.00
31346;BME280;21711;49.708;18.568;2023-04-10T00:16:07;98146.09;;;8.21;100.00
31346;BME280;21711;49.708;18.568;2023-04-10T00:18:34;98148.72;;;8.21;100.00
31346;BME280;21711;49.708;18.568;2023-04-10T00:21:02;98140.97;;;8.14;100.00
31346;BME280;21711;49.708;18.568;2023-04-10T00:23:30;98142.38;;;8.05;100.00
31346;BME280;21711;49.708;18.568;2023-04-10T00:25:58;98141.91;;;7.67;100.00
31346;BME280;21711;49.708;18.568;2023-04-10T00:28:26;98142.38;;;7.52;100.00
31346;BME280;21711;49.708;18.568;2023-04-10T00:30:53;98143.38;;;7.75;100.00
31346;BME280;21711;49.708;18.568;2023-04-10T00:33:20;98140.56;;;7.53;100.00
31346;BME280;21711;49.708;18.568;2023-04-10T00:35:47;98141.22;;;7.48;100.00
31346;BME280;21711;49.708;18.568;2023-04-10T00:38:15;98139.31;;;7.31;100.00
31346;BME280;21711;49.708;18.568;2023-04-10T00:40:43;98134.97;;;7.25;100.00
31346;BME280;21711;49.708;18.568;2023-04-10T00:43:11;98137.94;;;7.29;100.00
31346;BME280;21711;49.708;18.568;2023-04-10T00:45:38;98134.59;;;7.21;100.00
31346;BME280;21711;49.708;18.568;2023-04-10T00:48:06;98129.47;;;7.15;100.00
31346;BME280;21711;49.708;18.568;2023-04-10T00:50:34;98133.72;;;7.28;100.00
31346;BME280;21711;49.708;18.568;2023-04-10T00:53:02;98132.09;;;7.39;100.00
31346;BME280;21711;49.708;18.568;2023-04-10T00:55:29;98128.56;;;7.45;100.00
31346;BME280;21711;49.708;18.568;2023-04-10T00:57:57;98133.00;;;7.44;100.00
31346;BME280;21711;49.708;18.568;2023-04-10T01:00:24;98129.94;;;7.35;100.00
31346;BME280;21711;49.708;18.568;2023-04-10T01:02:53;98129.59;;;7.44;100.00
31346;BME280;21711;49.708;18.568;2023-04-10T01:05:22;98122.13;;;7.41;100.00
31346;BME280;21711;49.708;18.568;2023-04-10T01:08:11;98124.88;;;7.58;100.00
31346;BME280;21711;49.708;18.568;2023-04-10T01:11:26;98130.22;;;7.75;100.00
31346;BME280;21711;49.708;18.568;2023-04-10T01:14:11;98128.94;;;7.78;100.00
31346;BME280;21711;49.708;18.568;2023-04-10T01:16:52;98134.13;;;7.60;100.00
31346;BME280;21711;49.708;18.568;2023-04-10T01:19:57;98123.25;;;7.69;100.00
31346;BME280;21711;49.708;18.568;2023-04-10T01:25:37;98136.50;;;7.74;100.00
31346;BME280;21711;49.708;18.568;2023-04-10T01:28:29;98136.91;;;7.42;100.00
31346;BME280;21711;49.708;18.568;2023-04-10T01:31:00;98137.22;;;7.57;100.00
31346;BME280;21711;49.708;18.568;2023-04-10T01:33:48;98133.59;;;7.46;100.00
31346;BME280;21711;49.708;18.568;2023-04-10T01:36:24;98133.94;;;7.38;100.00
31346;BME280;21711;49.708;18.568;2023-04-10T01:38:55;98129.59;;;7.32;100.00
31346;BME280;21711;49.708;18.568;2023-04-10T01:41:24;98141.22;;;7.48;100.00
31346;BME280;21711;49.708;18.568;2023-04-10T01:43:53;98136.63;;;7.67;100.00
31346;BME280;21711;49.708;18.568;2023-04-10T01:46:22;98135.63;;;7.56;100.00
31346;BME280;21711;49.708;18.568;2023-04-10T01:48:52;98139.25;;;7.79;100.00
31346;BME280;21711;49.708;18.568;2023-04-10T01:51:20;98134.16;;;7.48;100.00
31346;BME280;21711;49.708;18.568;2023-04-10T01:53:49;98133.00;;;7.32;100.00
31346;BME280;21711;49.708;18.568;2023-04-10T01:56:22;98135.31;;;7.41;100.00
31346;BME280;21711;49.708;18.568;2023-04-10T01:58:50;98134.97;;;7.49;100.00
31346;BME280;21711;49.708;18.568;2023-04-10T02:01:21;98140.63;;;7.70;100.00
31346;BME280;21711;49.708;18.568;2023-04-10T02:03:57;98142.25;;;7.59;100.00
31346;BME280;21711;49.708;18.568;2023-04-10T02:12:17;98140.75;;;7.75;100.00
31346;BME280;21711;49.708;18.568;2023-04-10T02:14:48;98142.09;;;7.89;100.00
31346;BME280;21711;49.708;18.568;2023-04-10T02:17:22;98143.59;;;7.73;100.00
31346;BME280;21711;49.708;18.568;2023-04-10T02:19:54;98148.41;;;7.76;100.00
31346;BME280;21711;49.708;18.568;2023-04-10T02:22:23;98155.84;;;7.80;100.00
31346;BME280;21711;49.708;18.568;2023-04-10T02:24:52;98155.53;;;7.52;100.00
31346;BME280;21711;49.708;18.568;2023-04-10T02:27:32;98152.78;;;7.59;100.00
31346;BME280;21711;49.708;18.568;2023-04-10T02:30:01;98152.44;;;7.55;100.00
31346;BME280;21711;49.708;18.568;2023-04-10T02:32:31;98152.22;;;7.57;100.00
31346;BME280;21711;49.708;18.568;2023-04-10T02:35:00;98150.38;;;7.57;100.00
31346;BME280;21711;49.708;18.568;2023-04-10T02:37:29;98147.69;;;7.81;100.00
31346;BME280;21711;49.708;18.568;2023-04-10T02:39:59;98145.31;;;7.80;100.00
31346;BME280;21711;49.708;18.568;2023-04-10T02:42:34;98137.91;;;7.65;100.00
31346;BME280;21711;49.708;18.568;2023-04-10T02:45:02;98142.25;;;7.59;100.00
31346;BME280;21711;49.708;18.568;2023-04-10T02:47:35;98142.38;;;7.52;100.00
31346;BME280;21711;49.708;18.568;2023-04-10T02:50:02;98139.81;;;7.81;100.00
31346;BME280;21711;49.708;18.568;2023-04-10T02:52:34;98134.53;;;7.81;100.00
31346;BME280;21711;49.708;18.568;2023-04-10T02:55:02;98132.97;;;7.56;100.00
31346;BME280;21711;49.708;18.568;2023-04-10T02:57:34;98123.91;;;7.76;100.00
31346;BME280;21711;49.708;18.568;2023-04-10T03:00:03;98132.88;;;7.51;100.00
31346;BME280;21711;49.708;18.568;2023-04-10T03:02:51;98120.50;;;7.75;100.00
31346;BME280;21711;49.708;18.568;2023-04-10T03:05:20;98124.31;;;7.44;100.00
31346;BME280;21711;49.708;18.568;2023-04-10T03:07:47;98124.56;;;7.30;100.00
31346;BME280;21711;49.708;18.568;2023-04-10T03:10:15;98126.72;;;7.33;100.00
31346;BME280;21711;49.708;18.568;2023-04-10T03:12:42;98125.00;;;7.27;100.00
31346;BME280;21711;49.708;18.568;2023-04-10T03:15:10;98125.91;;;7.45;100.00
31346;BME280;21711;49.708;18.568;2023-04-10T03:17:37;98128.91;;;7.36;100.00
31346;BME280;21711;49.708;18.568;2023-04-10T03:20:07;98128.53;;;7.57;100.00
31346;BME280;21711;49.708;18.568;2023-04-10T03:22:34;98130.16;;;7.34;100.00
31346;BME280;21711;49.708;18.568;2023-04-10T03:25:02;98130.59;;;7.31;100.00
31346;BME280;21711;49.708;18.568;2023-04-10T03:27:29;98139.88;;;7.21;100.00
31346;BME280;21711;49.708;18.568;2023-04-10T03:30:01;98132.69;;;7.17;100.00
31346;BME280;21711;49.708;18.568;2023-04-10T03:32:36;98130.81;;;7.41;100.00
31346;BME280;21711;49.708;18.568;2023-04-10T03:35:05;98133.13;;;7.37;100.00
31346;BME280;21711;49.708;18.568;2023-04-10T03:37:33;98127.41;;;7.29;100.00
31346;BME280;21711;49.708;18.568;2023-04-10T03:40:00;98125.41;;;7.60;100.00
31346;BME280;21711;49.708;18.568;2023-04-10T03:42:28;98126.31;;;7.78;100.00
31346;BME280;21711;49.708;18.568;2023-04-10T03:44:55;98132.72;;;7.82;100.00
31346;BME280;21711;49.708;18.568;2023-04-10T03:47:23;98135.78;;;7.90;100.00
31346;BME280;21711;49.708;18.568;2023-04-10T03:49:51;98133.44;;;7.77;100.00
31346;BME280;21711;49.708;18.568;2023-04-10T03:52:19;98135.88;;;7.96;100.00
31346;BME280;21711;49.708;18.568;2023-04-10T03:54:46;98135.44;;;7.87;100.00
31346;BME280;21711;49.708;18.568;2023-04-10T03:57:23;98135.44;;;7.87;100.00
31346;BME280;21711;49.708;18.568;2023-04-10T03:59:54;98138.78;;;7.82;100.00
31346;BME280;21711;49.708;18.568;2023-04-10T04:02:21;98148.50;;;7.82;100.00
31346;BME280;21711;49.708;18.568;2023-04-10T04:04:49;98141.06;;;7.79;100.00
31346;BME280;21711;49.708;18.568;2023-04-10T04:07:39;98146.69;;;7.82;100.00
31346;BME280;21711;49.708;18.568;2023-04-10T04:10:19;98145.81;;;7.53;100.00
31346;BME280;21711;49.708;18.568;2023-04-10T04:13:01;98143.16;;;7.76;100.00
31346;BME280;21711;49.708;18.568;2023-04-10T04:15:42;98131.06;;;7.40;100.00
31346;BME280;21711;49.708;18.568;2023-04-10T04:18:27;98131.88;;;7.28;100.00
31346;BME280;21711;49.708;18.568;2023-04-10T04:21:15;98133.13;;;7.14;100.00
31346;BME280;21711;49.708;18.568;2023-04-10T04:23:58;98139.75;;;7.52;100.00
31346;BME280;21711;49.708;18.568;2023-04-10T04:26:45;98143.63;;;7.49;100.00
31346;BME280;21711;49.708;18.568;2023-04-10T04:29:51;98143.63;;;7.49;100.00
31346;BME280;21711;49.708;18.568;2023-04-10T04:32:24;98145.56;;;7.78;100.00
31346;BME280;21711;49.708;18.568;2023-04-10T04:35:03;98139.78;;;7.93;100.00
31346;BME280;21711;49.708;18.568;2023-04-10T04:38:06;98143.53;;;7.97;100.00
31346;BME280;21711;49.708;18.568;2023-04-10T04:40:56;98154.59;;;7.82;100.00
31346;BME280;21711;49.708;18.568;2023-04-10T04:43:40;98149.41;;;7.99;100.00
31346;BME280;21711;49.708;18.568;2023-04-10T04:46:28;98154.28;;;8.08;100.00
31346;BME280;21711;49.708;18.568;2023-04-10T04:49:14;98155.13;;;7.96;100.00
31346;BME280;21711;49.708;18.568;2023-04-10T04:52:17;98159.84;;;7.94;100.00
31346;BME280;21711;49.708;18.568;2023-04-10T04:54:56;98151.69;;;7.96;100.00
31346;BME280;21711;49.708;18.568;2023-04-10T04:57:44;98168.22;;;7.79;100.00
31346;BME280;21711;49.708;18.568;2023-04-10T05:00:24;98161.56;;;7.76;100.00
31346;BME280;21711;49.708;18.568;2023-04-10T05:02:52;98161.34;;;7.78;100.00
31346;BME280;21711;49.708;18.568;2023-04-10T05:05:31;98165.03;;;7.77;100.00
31346;BME280;21711;49.708;18.568;2023-04-10T05:08:25;98175.19;;;7.85;100.00
31346;BME280;21711;49.708;18.568;2023-04-10T05:10:58;98175.88;;;7.93;100.00
31346;BME280;21711;49.708;18.568;2023-04-10T05:14:01;98172.94;;;7.65;100.00
31346;BME280;21711;49.708;18.568;2023-04-10T05:16:40;98181.75;;;7.59;100.00
31346;BME280;21711;49.708;18.568;2023-04-10T05:19:20;98177.94;;;7.67;100.00
31346;BME280;21711;49.708;18.568;2023-04-10T05:22:12;98181.00;;;7.99;100.00
31346;BME280;21711;49.708;18.568;2023-04-10T05:24:42;98179.84;;;8.07;100.00
31346;BME280;21711;49.708;18.568;2023-04-10T05:27:27;98179.63;;;7.97;100.00
31346;BME280;21711;49.708;18.568;2023-04-10T05:30:18;98178.63;;;7.86;100.00
31346;BME280;21711;49.708;18.568;2023-04-10T05:33:06;98176.78;;;7.86;100.00
31346;BME280;21711;49.708;18.568;2023-04-10T05:36:03;98168.53;;;7.83;100.00
31346;BME280;21711;49.708;18.568;2023-04-10T05:38:51;98176.81;;;7.50;100.00
31346;BME280;21711;49.708;18.568;2023-04-10T05:41:44;98179.91;;;7.71;100.00
31346;BME280;21711;49.708;18.568;2023-04-10T05:44:24;98175.69;;;7.58;100.00
31346;BME280;21711;49.708;18.568;2023-04-10T05:47:04;98184.84;;;7.68;100.00
31346;BME280;21711;49.708;18.568;2023-04-10T05:50:10;98187.16;;;8.05;100.00
31346;BME280;21711;49.708;18.568;2023-04-10T05:52:54;98202.72;;;8.07;100.00
31346;BME280;21711;49.708;18.568;2023-04-10T05:55:40;98199.09;;;7.84;100.00
31346;BME280;21711;49.708;18.568;2023-04-10T05:58:37;98197.28;;;7.84;100.00
31346;BME280;21711;49.708;18.568;2023-04-10T06:01:07;98199.91;;;7.96;100.00
31346;BME280;21711;49.708;18.568;2023-04-10T06:03:57;98199.06;;;8.08;100.00
31346;BME280;21711;49.708;18.568;2023-04-10T06:06:25;98195.88;;;8.06;100.00
31346;BME280;21711;49.708;18.568;2023-04-10T06:08:53;98184.09;;;7.96;100.00
31346;BME280;21711;49.708;18.568;2023-04-10T06:11:20;98188.16;;;7.63;100.00
31346;BME280;21711;49.708;18.568;2023-04-10T06:13:52;98195.78;;;7.88;100.00
31346;BME280;21711;49.708;18.568;2023-04-10T06:16:24;98197.91;;;8.15;100.00
31346;BME280;21711;49.708;18.568;2023-04-10T06:18:53;98198.22;;;8.31;100.00
31346;BME280;21711;49.708;18.568;2023-04-10T06:21:21;98193.31;;;8.23;100.00
31346;BME280;21711;49.708;18.568;2023-04-10T06:23:48;98198.84;;;7.97;100.00
31346;BME280;21711;49.708;18.568;2023-04-10T06:26:17;98209.28;;;7.92;100.00
31346;BME280;21711;49.708;18.568;2023-04-10T06:28:45;98203.03;;;8.34;100.00
31346;BME280;21711;49.708;18.568;2023-04-10T06:31:14;98201.31;;;8.28;100.00
31346;BME280;21711;49.708;18.568;2023-04-10T06:33:42;98209.72;;;8.54;100.00
31346;BME280;21711;49.708;18.568;2023-04-10T06:36:10;98204.16;;;8.26;100.00
31346;BME280;21711;49.708;18.568;2023-04-10T06:38:43;98201.19;;;7.70;100.00
31346;BME280;21711;49.708;18.568;2023-04-10T06:41:12;98202.06;;;7.99;100.00
31346;BME280;21711;49.708;18.568;2023-04-10T06:43:39;98204.84;;;7.93;100.00
31346;BME280;21711;49.708;18.568;2023-04-10T06:46:07;98209.28;;;8.04;100.00
31346;BME280;21711;49.708;18.568;2023-04-10T06:48:34;98201.81;;;8.13;100.00
31346;BME280;21711;49.708;18.568;2023-04-10T06:51:02;98209.88;;;7.94;100.00
31346;BME280;21711;49.708;18.568;2023-04-10T06:53:29;98209.97;;;7.99;100.00
31346;BME280;21711;49.708;18.568;2023-04-10T06:55:57;98211.16;;;8.33;100.00
31346;BME280;21711;49.708;18.568;2023-04-10T06:58:29;98203.91;;;8.40;100.00
31346;BME280;21711;49.708;18.568;2023-04-10T07:00:56;98209.91;;;8.64;100.00
31346;BME280;21711;49.708;18.568;2023-04-10T07:03:25;98209.28;;;8.74;100.00
31346;BME280;21711;49.708;18.568;2023-04-10T07:05:52;98212.59;;;8.99;100.00
31346;BME280;21711;49.708;18.568;2023-04-10T07:08:19;98207.41;;;9.21;100.00
31346;BME280;21711;49.708;18.568;2023-04-10T07:10:47;98208.84;;;9.29;100.00
31346;BME280;21711;49.708;18.568;2023-04-10T07:13:14;98205.34;;;9.06;100.00
31346;BME280;21711;49.708;18.568;2023-04-10T07:15:41;98201.72;;;8.78;100.00
31346;BME280;21711;49.708;18.568;2023-04-10T07:18:08;98194.72;;;8.72;100.00
31346;BME280;21711;49.708;18.568;2023-04-10T07:20:36;98201.94;;;8.47;100.00
31346;BME280;21711;49.708;18.568;2023-04-10T07:23:04;98199.06;;;8.78;100.00
31346;BME280;21711;49.708;18.568;2023-04-10T07:25:33;98200.91;;;8.77;100.00
31346;BME280;21711;49.708;18.568;2023-04-10T07:28:00;98203.91;;;8.98;100.00
31346;BME280;21711;49.708;18.568;2023-04-10T07:30:27;98205.50;;;8.99;100.00
31346;BME280;21711;49.708;18.568;2023-04-10T07:32:54;98217.66;;;9.17;100.00
31346;BME280;21711;49.708;18.568;2023-04-10T07:35:22;98217.72;;;9.23;100.00
31346;BME280;21711;49.708;18.568;2023-04-10T07:37:49;98226.38;;;9.52;100.00
31346;BME280;21711;49.708;18.568;2023-04-10T07:40:18;98219.41;;;9.46;100.00
31346;BME280;21711;49.708;18.568;2023-04-10T07:42:45;98219.25;;;9.36;100.00
31346;BME280;21711;49.708;18.568;2023-04-10T07:45:13;98220.75;;;8.97;100.00
31346;BME280;21711;49.708;18.568;2023-04-10T07:47:41;98220.94;;;9.42;100.00
31346;BME280;21711;49.708;18.568;2023-04-10T07:50:08;98220.44;;;9.28;100.00
31346;BME280;21711;49.708;18.568;2023-04-10T07:52:35;98217.88;;;8.52;100.00
31346;BME280;21711;49.708;18.568;2023-04-10T07:55:03;98221.16;;;8.89;100.00
31346;BME280;21711;49.708;18.568;2023-04-10T07:57:31;98213.91;;;8.67;100.00
31346;BME280;21711;49.708;18.568;2023-04-10T07:59:58;98216.19;;;8.75;100.00
31346;BME280;21711;49.708;18.568;2023-04-10T08:02:25;98211.97;;;8.62;100.00
31346;BME280;21711;49.708;18.568;2023-04-10T08:04:53;98215.19;;;8.64;100.00
31346;BME280;21711;49.708;18.568;2023-04-10T08:07:20;98214.13;;;8.36;100.00
31346;BME280;21711;49.708;18.568;2023-04-10T08:09:48;98211.16;;;8.33;100.00
31346;BME280;21711;49.708;18.568;2023-04-10T08:12:15;98212.16;;;8.44;100.00
31346;BME280;21711;49.708;18.568;2023-04-10T08:14:43;98210.38;;;8.61;100.00
31346;BME280;21711;49.708;18.568;2023-04-10T08:17:11;98213.03;;;8.49;100.00
31346;BME280;21711;49.708;18.568;2023-04-10T08:19:41;98220.81;;;8.85;100.00
31346;BME280;21711;49.708;18.568;2023-04-10T08:22:09;98214.50;;;8.86;100.00
31346;BME280;21711;49.708;18.568;2023-04-10T08:24:37;98216.28;;;8.98;100.00
31346;BME280;21711;49.708;18.568;2023-04-10T08:27:04;98212.66;;;8.87;100.00
31346;BME280;21711;49.708;18.568;2023-04-10T08:29:31;98211.38;;;8.72;100.00
31346;BME280;21711;49.708;18.568;2023-04-10T08:31:59;98208.66;;;8.26;100.00
31346;BME280;21711;49.708;18.568;2023-04-10T08:34:27;98209.06;;;8.35;100.00
31346;BME280;21711;49.708;18.568;2023-04-10T08:36:56;98209.84;;;8.47;100.00
31346;BME280;21711;49.708;18.568;2023-04-10T08:39:23;98206.41;;;8.76;100.00
31346;BME280;21711;49.708;18.568;2023-04-10T08:41:51;98202.47;;;8.61;100.00
31346;BME280;21711;49.708;18.568;2023-04-10T08:44:18;98201.63;;;8.73;100.00
31346;BME280;21711;49.708;18.568;2023-04-10T08:46:46;98206.41;;;8.47;100.00
31346;BME280;21711;49.708;18.568;2023-04-10T08:49:46;98205.47;;;8.53;100.00
31346;BME280;21711;49.708;18.568;2023-04-10T08:52:22;98203.09;;;8.98;100.00
31346;BME280;21711;49.708;18.568;2023-04-10T08:54:54;98209.28;;;9.20;100.00
31346;BME280;21711;49.708;18.568;2023-04-10T08:57:22;98212.66;;;8.87;100.00
31346;BME280;21711;49.708;18.568;2023-04-10T08:59:50;98212.59;;;9.16;100.00
31346;BME280;21711;49.708;18.568;2023-04-10T09:02:18;98208.53;;;9.42;100.00
31346;BME280;21711;49.708;18.568;2023-04-10T09:04:51;98211.25;;;9.30;100.00
31346;BME280;21711;49.708;18.568;2023-04-10T09:07:21;98204.84;;;8.92;100.00
31346;BME280;21711;49.708;18.568;2023-04-10T09:09:49;98205.47;;;8.82;100.00
31346;BME280;21711;49.708;18.568;2023-04-10T09:12:16;98207.25;;;9.11;100.00
31346;BME280;21711;49.708;18.568;2023-04-10T09:14:44;98205.44;;;9.11;100.00
31346;BME280;21711;49.708;18.568;2023-04-10T09:17:23;98203.00;;;8.92;100.00
31346;BME280;21711;49.708;18.568;2023-04-10T09:19:54;98198.69;;;9.38;100.00
31346;BME280;21711;49.708;18.568;2023-04-10T09:22:35;98197.59;;;8.99;100.00
31346;BME280;21711;49.708;18.568;2023-04-10T09:25:03;98199.38;;;9.50;100.00
31346;BME280;21711;49.708;18.568;2023-04-10T09:27:33;98198.38;;;9.51;100.00
31346;BME280;21711;49.708;18.568;2023-04-10T09:30:02;98186.19;;;9.67;100.00
31346;BME280;21711;49.708;18.568;2023-04-10T09:32:44;98190.53;;;9.79;100.00
31346;BME280;21711;49.708;18.568;2023-04-10T09:35:14;98190.00;;;9.99;100.00
31346;BME280;21711;49.708;18.568;2023-04-10T09:37:44;98199.81;;;9.42;100.00
31346;BME280;21711;49.708;18.568;2023-04-10T09:42:47;98192.03;;;8.84;100.00
31346;BME280;21711;49.708;18.568;2023-04-10T09:45:15;98185.09;;;9.12;100.00
31346;BME280;21711;49.708;18.568;2023-04-10T09:48:06;98184.41;;;8.99;100.00
31346;BME280;21711;49.708;18.568;2023-04-10T09:50:39;98185.28;;;9.22;100.00
31346;BME280;21711;49.708;18.568;2023-04-10T09:53:09;98187.00;;;9.51;100.00
31346;BME280;21711;49.708;18.568;2023-04-10T09:55:37;98193.75;;;10.03;100.00
31346;BME280;21711;49.708;18.568;2023-04-10T09:58:06;98195.13;;;10.06;100.00
31346;BME280;21711;49.708;18.568;2023-04-10T10:00:42;98191.41;;;10.07;100.00
31346;BME280;21711;49.708;18.568;2023-04-10T10:03:18;98190.06;;;10.04;100.00
31346;BME280;21711;49.708;18.568;2023-04-10T10:05:51;98189.66;;;10.12;100.00
31346;BME280;21711;49.708;18.568;2023-04-10T10:08:19;98190.66;;;10.11;100.00
31346;BME280;21711;49.708;18.568;2023-04-10T10:10:52;98181.38;;;10.09;100.00
31346;BME280;21711;49.708;18.568;2023-04-10T10:13:49;98176.47;;;9.73;100.00
31346;BME280;21711;49.708;18.568;2023-04-10T10:16:45;98174.75;;;9.84;100.00
31346;BME280;21711;49.708;18.568;2023-04-10T10:19:32;98167.50;;;10.19;100.00
31346;BME280;21711;49.708;18.568;2023-04-10T10:22:03;98173.06;;;10.45;100.00
31346;BME280;21711;49.708;18.568;2023-04-10T10:24:32;98167.31;;;10.25;100.00
31346;BME280;21711;49.708;18.568;2023-04-10T10:27:01;98167.31;;;9.81;100.00
31346;BME280;21711;49.708;18.568;2023-04-10T10:29:31;98162.19;;;9.91;100.00
31346;BME280;21711;49.708;18.568;2023-04-10T10:32:02;98158.09;;;10.28;100.00
31346;BME280;21711;49.708;18.568;2023-04-10T10:34:32;98161.78;;;10.27;100.00
31346;BME280;21711;49.708;18.568;2023-04-10T10:37:00;98162.44;;;10.39;100.00
31346;BME280;21711;49.708;18.568;2023-04-10T10:39:45;98159.88;;;9.55;100.00
31346;BME280;21711;49.708;18.568;2023-04-10T10:42:49;98153.66;;;9.44;100.00
31346;BME280;21711;49.708;18.568;2023-04-10T10:45:35;98153.56;;;9.56;100.00
31346;BME280;21711;49.708;18.568;2023-04-10T10:48:04;98152.69;;;9.95;100.00
31346;BME280;21711;49.708;18.568;2023-04-10T10:50:56;98148.69;;;9.70;100.00
31346;BME280;21711;49.708;18.568;2023-04-10T10:58:53;98146.16;;;9.19;100.00
31346;BME280;21711;49.708;18.568;2023-04-10T11:01:22;98144.63;;;9.40;100.00
31346;BME280;21711;49.708;18.568;2023-04-10T11:03:50;98144.16;;;9.66;100.00
31346;BME280;21711;49.708;18.568;2023-04-10T11:06:48;98146.16;;;10.25;100.00
31346;BME280;21711;49.708;18.568;2023-04-10T11:12:17;98141.34;;;10.72;100.00
31346;BME280;21711;49.708;18.568;2023-04-10T11:14:57;98142.03;;;10.62;100.00
31346;BME280;21711;49.708;18.568;2023-04-10T11:20:19;98147.28;;;10.90;100.00
31346;BME280;21711;49.708;18.568;2023-04-10T11:23:10;98135.78;;;10.74;100.00
31346;BME280;21711;49.708;18.568;2023-04-10T11:25:49;98137.38;;;11.08;100.00
31346;BME280;21711;49.708;18.568;2023-04-10T11:28:39;98122.47;;;10.63;100.00
31346;BME280;21711;49.708;18.568;2023-04-10T11:31:36;98127.69;;;10.86;100.00
31346;BME280;21711;49.708;18.568;2023-04-10T11:34:08;98124.94;;;11.08;100.00
31346;BME280;21711;49.708;18.568;2023-04-10T11:36:42;98123.59;;;11.05;100.00
31346;BME280;21711;49.708;18.568;2023-04-10T11:39:16;98126.84;;;11.18;100.00
31346;BME280;21711;49.708;18.568;2023-04-10T11:41:51;98125.72;;;11.09;100.00
31346;BME280;21711;49.708;18.568;2023-04-10T11:46:52;98115.91;;;11.04;100.00
31346;BME280;21711;49.708;18.568;2023-04-10T11:49:26;98113.28;;;11.04;100.00
31346;BME280;21711;49.708;18.568;2023-04-10T11:51:54;98111.75;;;10.81;100.00
31346;BME280;21711;49.708;18.568;2023-04-10T11:54:27;98109.41;;;10.51;100.00
31346;BME280;21711;49.708;18.568;2023-04-10T11:57:06;98109.44;;;10.84;100.00
31346;BME280;21711;49.708;18.568;2023-04-10T11:59:39;98107.31;;;10.86;100.00
31346;BME280;21711;49.708;18.568;2023-04-10T12:02:14;98107.63;;;10.95;100.00
31346;BME280;21711;49.708;18.568;2023-04-10T12:04:42;98109.50;;;10.95;100.00
31346;BME280;21711;49.708;18.568;2023-04-10T12:07:10;98106.66;;;11.07;100.00
31346;BME280;21711;49.708;18.568;2023-04-10T12:09:38;98104.78;;;11.02;100.00
31346;BME280;21711;49.708;18.568;2023-04-10T12:12:06;98111.31;;;10.89;100.00
31346;BME280;21711;49.708;18.568;2023-04-10T12:14:37;98104.91;;;10.85;100.00
31346;BME280;21711;49.708;18.568;2023-04-10T12:17:08;98100.75;;;10.56;100.00
31346;BME280;21711;49.708;18.568;2023-04-10T12:19:37;98106.47;;;10.81;100.00
31346;BME280;21711;49.708;18.568;2023-04-10T12:22:05;98098.25;;;10.77;100.00
31346;BME280;21711;49.708;18.568;2023-04-10T12:24:48;98095.88;;;10.81;100.00
31346;BME280;21711;49.708;18.568;2023-04-10T12:27:25;98085.78;;;11.10;100.00
31346;BME280;21711;49.708;18.568;2023-04-10T12:29:56;98073.88;;;11.13;100.00
31346;BME280;21711;49.708;18.568;2023-04-10T12:32:24;98076.75;;;11.06;100.00
31346;BME280;21711;49.708;18.568;2023-04-10T12:34:56;98077.97;;;11.31;100.00
31346;BME280;21711;49.708;18.568;2023-04-10T12:37:45;98072.50;;;11.53;100.00
31346;BME280;21711;49.708;18.568;2023-04-10T12:40:13;98066.59;;;11.36;100.00
31346;BME280;21711;49.708;18.568;2023-04-10T12:42:41;98066.91;;;11.50;100.00
31346;BME280;21711;49.708;18.568;2023-04-10T12:45:10;98057.16;;;11.61;100.00
31346;BME280;21711;49.708;18.568;2023-04-10T12:47:50;98051.69;;;11.99;100.00
31346;BME280;21711;49.708;18.568;2023-04-10T12:50:19;98044.47;;;11.73;100.00
31346;BME280;21711;49.708;18.568;2023-04-10T12:53:07;98049.38;;;11.38;100.00
31346;BME280;21711;49.708;18.568;2023-04-10T12:55:35;98049.13;;;11.35;100.00
31346;BME280;21711;49.708;18.568;2023-04-10T12:58:19;98038.09;;;11.64;100.00
31346;BME280;21711;49.708;18.568;2023-04-10T13:00:47;98046.34;;;11.83;100.00
31346;BME280;21711;49.708;18.568;2023-04-10T13:03:14;98036.25;;;11.64;100.00
31346;BME280;21711;49.708;18.568;2023-04-10T13:05:43;98039.75;;;11.91;100.00
31346;BME280;21711;49.708;18.568;2023-04-10T13:08:10;98034.72;;;11.94;100.00
31346;BME280;21711;49.708;18.568;2023-04-10T13:10:38;98031.66;;;11.39;100.00
31346;BME280;21711;49.708;18.568;2023-04-10T13:13:06;98032.41;;;11.34;100.00
31346;BME280;21711;49.708;18.568;2023-04-10T13:15:34;98032.22;;;11.51;100.00
31346;BME280;21711;49.708;18.568;2023-04-10T13:18:01;98030.19;;;11.84;100.00
31346;BME280;21711;49.708;18.568;2023-04-10T13:20:36;98022.25;;;11.95;100.00
31346;BME280;21711;49.708;18.568;2023-04-10T13:23:04;98018.56;;;11.91;100.00
31346;BME280;21711;49.708;18.568;2023-04-10T13:25:35;98012.44;;;11.85;100.00
31346;BME280;21711;49.708;18.568;2023-04-10T13:28:03;98008.44;;;11.72;100.00
31346;BME280;21711;49.708;18.568;2023-04-10T13:30:41;97999.00;;;12.13;100.00
31346;BME280;21711;49.708;18.568;2023-04-10T13:33:08;97994.97;;;11.79;100.00
31346;BME280;21711;49.708;18.568;2023-04-10T13:35:37;97997.88;;;11.88;100.00
31346;BME280;21711;49.708;18.568;2023-04-10T13:38:06;97989.44;;;12.17;100.00
31346;BME280;21711;49.708;18.568;2023-04-10T13:40:35;97984.16;;;12.06;100.00
31346;BME280;21711;49.708;18.568;2023-04-10T13:43:02;97985.16;;;12.73;100.00
31346;BME280;21711;49.708;18.568;2023-04-10T13:45:32;97984.31;;;12.93;100.00